KLAX/LAX METAR and TAF weather

Enter ICAO airport designator
Station Type Date Time Source
KLAX METAR 2019/02/20 17:53 UTC NOAA

KLAX 201753Z 13009KT 10SM SCT027 BKN050 BKN160 12/04 A2998 RMK AO2 SLP152 T01170039 10117 20061 58013 $


Station Type Date Time Source
KLAX Decoded METAR 2019/02/20 17:53 UTC NOAA

LOS ANGELES INTERNTL AIRPORT, CA, United States (KLAX) 33-56N 118-23W 46M
Feb 20, 2019 - 12:53 PM EST / 2019.02.20 1753 UTC
Wind: from the SE (130 degrees) at 10 MPH (9 KT):0
Visibility: 10 mile(s):0
Sky conditions: mostly cloudy
Temperature: 53.1 F (11.7 C)
Dew Point: 39.0 F (3.9 C)
Relative Humidity: 58%
Pressure (altimeter): 29.98 in. Hg (1015 hPa)
Pressure tendency: 0.04 inches (1.3 hPa) lower than three hours ago
ob: KLAX 201753Z 13009KT 10SM SCT027 BKN050 BKN160 12/04 A2998 RMK AO2 SLP152 T01170039 10117 20061 58013
cycle: 18

Station Type Date Time Source
KLAX TAF 2019/02/20 18:48 UTC NOAA

TAF KLAX 201746Z 2018/2124 09009KT P6SM FEW025 SCT045 BKN140
FM202000 25012KT P6SM BKN040
FM210400 28010KT P6SM -SHRA BKN035
FM211500 34006KT P6SM VCSH SCT035 BKN060
FM212000 27012KT P6SM SCT060


Example: see airport list